Time;durP1;ratioP1;P1;durP2;ratioP2;P2;SDS_P1;SDS_P2;PMS_P1;PMS_P2;Temp;Humidity;BMP_temperature;BMP_pressure;BME280_temperature;BME280_humidity;BME280_pressure;Samples;Min_cycle;Max_cycle;Signal;HPM_P1;HPM_P2
2023/11/16 00:00:12;;;;;;;4.80;2.70;;;;;;;5.48;89.37;96453.52;108893;1272;22543;-81
2023/11/16 00:03:05;;;;;;;4.20;2.50;;;;;;;5.46;89.28;96455.33;108907;1266;22538;-81
2023/11/16 00:05:39;;;;;;;3.20;2.00;;;;;;;5.43;89.36;96458.41;108912;1266;25414;-81
2023/11/16 00:08:10;;;;;;;2.60;1.70;;;;;;;5.42;89.41;96462.86;108923;1272;22521;-80
2023/11/16 00:10:41;;;;;;;4.30;2.20;;;;;;;5.41;89.44;96460.55;108894;1272;25421;-81
2023/11/16 00:13:12;;;;;;;5.40;3.20;;;;;;;5.39;89.62;96464.02;108956;1266;24174;-81
2023/11/16 00:15:44;;;;;;;5.10;3.00;;;;;;;5.38;89.48;96465.10;108967;1272;22570;-80
2023/11/16 00:18:16;;;;;;;6.50;3.30;;;;;;;5.37;89.62;96465.05;108888;1269;24256;-80
2023/11/16 00:20:48;;;;;;;3.10;2.10;;;;;;;5.36;89.87;96464.81;108939;1272;22791;-81
2023/11/16 00:23:19;;;;;;;5.90;3.00;;;;;;;5.35;89.83;96468.77;108930;1270;22558;-81
2023/11/16 00:25:50;;;;;;;5.80;3.10;;;;;;;5.35;89.92;96468.88;108880;1270;22569;-81
2023/11/16 00:28:24;;;;;;;5.20;3.00;;;;;;;5.35;89.98;96471.70;108986;1272;34673;-80
2023/11/16 00:30:55;;;;;;;4.20;2.90;;;;;;;5.35;90.11;96471.34;108996;1265;22594;-81
2023/11/16 00:33:26;;;;;;;7.10;3.30;;;;;;;5.34;89.87;96475.83;108955;1272;22550;-81
2023/11/16 00:35:58;;;;;;;4.80;2.90;;;;;;;5.33;90.07;96479.80;108915;1266;25523;-81
2023/11/16 00:38:29;;;;;;;4.10;2.80;;;;;;;5.32;90.11;96481.11;108892;1272;22472;-81
2023/11/16 00:41:01;;;;;;;5.00;2.90;;;;;;;5.32;90.22;96487.31;108849;1265;22521;-81
2023/11/16 00:43:34;;;;;;;5.20;3.00;;;;;;;5.31;90.19;96484.73;108892;1272;22532;-81
2023/11/16 00:46:09;;;;;;;4.30;2.80;;;;;;;5.31;90.22;96484.20;108952;1266;22551;-81
2023/11/16 00:48:40;;;;;;;4.70;2.90;;;;;;;5.29;90.42;96485.30;108979;1266;27173;-80
2023/11/16 00:51:16;;;;;;;4.40;2.90;;;;;;;5.27;90.50;96488.27;108933;1272;22531;-81
2023/11/16 00:53:49;;;;;;;5.00;2.50;;;;;;;5.25;90.32;96484.89;108902;1266;22528;-81
2023/11/16 00:56:21;;;;;;;4.90;3.00;;;;;;;5.22;90.55;96490.91;108854;1269;22550;-81
2023/11/16 00:58:55;;;;;;;5.20;2.70;;;;;;;5.20;90.94;96491.76;108909;1272;22530;-81
2023/11/16 01:01:29;;;;;;;5.20;2.60;;;;;;;5.17;91.18;96489.99;108903;1264;22523;-80
2023/11/16 01:04:04;;;;;;;5.50;3.20;;;;;;;5.12;91.51;96492.95;108875;1272;22548;-81
2023/11/16 01:06:38;;;;;;;4.10;2.20;;;;;;;5.09;91.49;96492.45;108834;1272;22531;-81
2023/11/16 01:09:09;;;;;;;3.60;2.00;;;;;;;5.08;91.41;96499.84;108853;1272;24925;-80
2023/11/16 01:11:40;;;;;;;3.70;2.10;;;;;;;5.07;91.45;96503.50;108904;1272;22657;-81
2023/11/16 01:14:16;;;;;;;3.60;2.50;;;;;;;5.06;91.46;96507.48;108940;1266;22607;-81
2023/11/16 01:16:49;;;;;;;4.40;2.50;;;;;;;5.04;91.31;96504.61;108957;1272;25435;-81
2023/11/16 01:19:25;;;;;;;3.50;2.00;;;;;;;5.03;91.37;96513.64;108917;1272;24375;-80
2023/11/16 01:22:00;;;;;;;4.30;2.20;;;;;;;5.03;91.20;96514.54;108890;1251;22575;-81
2023/11/16 01:24:35;;;;;;;2.50;1.90;;;;;;;5.04;91.28;96517.02;108997;1272;22531;-80
2023/11/16 01:27:15;;;;;;;4.00;2.50;;;;;;;5.03;91.10;96515.80;109043;1272;22520;-81
2023/11/16 01:29:47;;;;;;;2.20;1.90;;;;;;;5.03;91.12;96518.01;108971;1272;23466;-81
2023/11/16 01:32:18;;;;;;;3.90;2.20;;;;;;;5.01;91.06;96522.61;108955;1272;23182;-81
2023/11/16 01:34:51;;;;;;;2.20;1.90;;;;;;;5.01;90.83;96524.08;108838;1266;22551;-81
2023/11/16 01:37:22;;;;;;;3.90;2.50;;;;;;;5.01;91.02;96522.02;108912;1272;22531;-81
2023/11/16 01:39:53;;;;;;;4.80;2.60;;;;;;;5.00;90.93;96521.13;108819;1272;22570;-81
2023/11/16 01:42:25;;;;;;;3.40;2.50;;;;;;;4.98;91.02;96520.69;108946;1272;22642;-81
2023/11/16 01:44:56;;;;;;;4.00;2.40;;;;;;;4.96;90.81;96521.45;108857;1266;22648;-81
2023/11/16 01:47:27;;;;;;;4.20;2.40;;;;;;;4.95;90.83;96523.77;108975;1266;22535;-81
2023/11/16 01:50:00;;;;;;;4.80;2.50;;;;;;;4.94;90.69;96522.17;108946;1269;35526;-81
2023/11/16 01:52:35;;;;;;;3.10;2.30;;;;;;;4.94;90.81;96524.33;108978;1269;22785;-81
2023/11/16 01:55:07;;;;;;;3.70;2.10;;;;;;;4.93;90.97;96526.29;108930;1266;22543;-81
2023/11/16 01:57:39;;;;;;;4.90;2.40;;;;;;;4.92;90.82;96533.53;109039;1265;22532;-81
2023/11/16 02:00:15;;;;;;;3.20;2.20;;;;;;;4.92;90.80;96530.02;108943;1272;22542;-81
2023/11/16 02:02:49;;;;;;;3.90;2.20;;;;;;;4.94;90.89;96527.89;108930;1271;22918;-81
2023/11/16 02:05:21;;;;;;;3.50;2.20;;;;;;;4.94;90.95;96522.06;108898;1266;22517;-81
2023/11/16 02:07:52;;;;;;;4.60;2.50;;;;;;;4.95;90.88;96522.48;108831;1272;22631;-80
2023/11/16 02:10:23;;;;;;;5.20;2.60;;;;;;;4.94;91.02;96525.16;108843;1272;22545;-81
2023/11/16 02:12:55;;;;;;;5.30;2.30;;;;;;;4.94;90.90;96530.52;108843;1272;22541;-81
2023/11/16 02:15:28;;;;;;;3.40;2.40;;;;;;;4.95;91.00;96532.95;108897;1272;24251;-81
2023/11/16 02:17:59;;;;;;;5.20;2.70;;;;;;;4.96;91.11;96534.70;108931;1272;22564;-81
2023/11/16 02:20:33;;;;;;;4.20;2.40;;;;;;;4.96;91.10;96532.34;108942;1266;22524;-81
2023/11/16 02:23:07;;;;;;;3.60;2.20;;;;;;;4.96;91.25;96535.59;108927;1272;22525;-81
2023/11/16 02:25:46;;;;;;;4.70;2.60;;;;;;;4.96;91.25;96534.80;108982;1266;23238;-81
2023/11/16 02:28:19;;;;;;;4.10;2.80;;;;;;;4.96;91.39;96533.91;108887;1269;22559;-80
2023/11/16 02:30:50;;;;;;;3.40;2.00;;;;;;;4.97;91.41;96534.55;109004;1269;25416;-81
2023/11/16 02:33:22;;;;;;;3.60;2.40;;;;;;;4.97;91.37;96531.29;108885;1270;22535;-81
2023/11/16 02:35:53;;;;;;;3.60;2.40;;;;;;;4.98;91.33;96533.51;108876;1266;22802;-80
2023/11/16 02:38:24;;;;;;;3.60;2.20;;;;;;;4.96;91.49;96535.38;108868;1272;22540;-80
2023/11/16 02:40:56;;;;;;;4.00;2.40;;;;;;;4.98;91.17;96539.77;108882;1272;24278;-80
2023/11/16 02:43:29;;;;;;;3.70;2.40;;;;;;;4.98;91.20;96539.44;108937;1272;22579;-80
2023/11/16 02:46:03;;;;;;;3.30;2.00;;;;;;;4.98;91.31;96534.30;108841;1271;22521;-81
2023/11/16 02:48:34;;;;;;;3.00;2.00;;;;;;;4.98;91.14;96541.30;108885;1272;22536;-80
2023/11/16 02:51:06;;;;;;;3.40;1.90;;;;;;;4.98;91.26;96547.16;108864;1272;22528;-81
2023/11/16 02:53:37;;;;;;;2.80;2.00;;;;;;;4.98;91.22;96550.85;108847;1272;22537;-81
2023/11/16 02:56:10;;;;;;;2.90;1.70;;;;;;;4.98;91.17;96552.01;108910;1272;23122;-80
2023/11/16 02:58:43;;;;;;;4.20;2.20;;;;;;;4.98;91.01;96559.61;108873;1265;23599;-80
2023/11/16 03:01:15;;;;;;;3.50;2.00;;;;;;;4.97;91.11;96558.25;108894;1272;25336;-81
2023/11/16 03:03:46;;;;;;;2.90;2.00;;;;;;;4.97;91.04;96566.50;108873;1266;24180;-80
2023/11/16 03:06:17;;;;;;;3.50;2.00;;;;;;;4.96;91.02;96561.81;108909;1272;22524;-80
2023/11/16 03:08:49;;;;;;;4.30;2.20;;;;;;;4.96;91.05;96561.86;108977;1272;22533;-80
2023/11/16 03:11:20;;;;;;;3.80;2.30;;;;;;;4.95;91.01;96559.02;108892;1272;22482;-81
2023/11/16 03:13:52;;;;;;;3.70;2.30;;;;;;;4.96;90.86;96565.38;109022;1272;22463;-81
2023/11/16 03:16:23;;;;;;;2.60;1.80;;;;;;;4.96;91.04;96569.85;109028;1272;22503;-81
2023/11/16 03:18:57;;;;;;;4.10;2.10;;;;;;;4.97;90.99;96575.01;109055;1265;22531;-80
2023/11/16 03:21:28;;;;;;;3.00;2.20;;;;;;;4.96;90.81;96577.35;108993;1272;25424;-81
2023/11/16 03:23:59;;;;;;;4.00;2.50;;;;;;;4.96;90.95;96580.04;109046;1264;25949;-80
2023/11/16 03:26:32;;;;;;;2.90;1.90;;;;;;;4.97;90.93;96587.25;109170;1272;22564;-81
2023/11/16 03:29:06;;;;;;;3.10;2.20;;;;;;;4.96;90.89;96589.08;109185;1272;22525;-80
2023/11/16 03:31:37;;;;;;;3.10;2.50;;;;;;;4.96;90.76;96593.44;109058;1272;22524;-81
2023/11/16 03:34:08;;;;;;;4.00;2.40;;;;;;;4.96;90.75;96593.80;109165;1272;23426;-81
2023/11/16 03:36:39;;;;;;;3.10;2.50;;;;;;;4.98;90.93;96597.40;109104;1272;22729;-81
2023/11/16 03:39:13;;;;;;;4.60;2.50;;;;;;;4.98;90.94;96597.51;109159;1266;22617;-80
2023/11/16 03:41:44;;;;;;;4.10;2.20;;;;;;;4.98;90.84;96593.84;109307;1272;22468;-81
2023/11/16 03:44:15;;;;;;;3.30;2.40;;;;;;;5.00;90.82;96594.80;109165;1272;22545;-80
2023/11/16 03:46:47;;;;;;;4.50;2.60;;;;;;;4.99;90.71;96597.77;109150;1266;22521;-81
2023/11/16 03:49:18;;;;;;;4.50;2.50;;;;;;;4.97;90.66;96600.33;109123;1269;22552;-80
2023/11/16 03:51:52;;;;;;;4.20;2.50;;;;;;;4.96;90.75;96601.52;109064;1265;22540;-81
2023/11/16 03:54:23;;;;;;;3.30;2.40;;;;;;;4.95;90.69;96599.05;108995;1272;22528;-80
2023/11/16 03:56:54;;;;;;;3.70;2.10;;;;;;;4.94;90.87;96598.40;108973;1267;22553;-80
2023/11/16 03:59:26;;;;;;;4.30;2.70;;;;;;;4.93;90.95;96597.13;108992;1272;25371;-81
2023/11/16 04:01:57;;;;;;;3.20;2.60;;;;;;;4.92;91.11;96599.45;108911;1266;22546;-80
2023/11/16 04:04:28;;;;;;;3.10;2.20;;;;;;;4.90;91.01;96596.91;108968;1266;23284;-81
2023/11/16 04:06:59;;;;;;;4.30;2.40;;;;;;;4.90;91.11;96602.00;109039;1266;23721;-81
2023/11/16 04:09:31;;;;;;;3.50;2.30;;;;;;;4.90;91.05;96599.17;109121;1272;22513;-80
2023/11/16 04:12:02;;;;;;;3.40;2.90;;;;;;;4.89;90.96;96597.95;109085;1272;23013;-81
2023/11/16 04:14:34;;;;;;;3.10;2.40;;;;;;;4.88;91.13;96596.99;109039;1272;25497;-81
2023/11/16 04:17:09;;;;;;;7.00;2.80;;;;;;;4.87;91.23;96597.02;109151;1272;22589;-79
2023/11/16 04:19:41;;;;;;;5.20;2.90;;;;;;;4.85;91.25;96595.27;109015;1266;23705;-81
2023/11/16 04:22:15;;;;;;;6.40;3.00;;;;;;;4.84;91.41;96600.09;109080;1272;22565;-81
2023/11/16 04:24:48;;;;;;;4.80;2.60;;;;;;;4.84;91.33;96598.25;109077;1266;22529;-81
2023/11/16 04:27:20;;;;;;;4.20;2.70;;;;;;;4.84;91.40;96592.68;109119;1269;22602;-81
2023/11/16 04:29:51;;;;;;;3.30;2.50;;;;;;;4.83;91.45;96595.04;109055;1272;23058;-81
2023/11/16 04:32:23;;;;;;;4.20;2.80;;;;;;;4.82;91.35;96599.29;109031;1272;26551;-81
2023/11/16 04:34:55;;;;;;;3.20;2.70;;;;;;;4.81;91.48;96594.54;108991;1266;22529;-81
2023/11/16 04:37:27;;;;;;;4.40;2.80;;;;;;;4.79;91.69;96596.88;108987;1272;22542;-81
2023/11/16 04:39:58;;;;;;;3.80;2.90;;;;;;;4.77;91.50;96596.52;108946;1266;22533;-80
2023/11/16 04:42:29;;;;;;;3.70;2.70;;;;;;;4.76;91.60;96595.45;108939;1272;22548;-81
2023/11/16 04:45:03;;;;;;;4.70;2.70;;;;;;;4.74;91.74;96596.33;108941;1272;22570;-81
2023/11/16 04:47:37;;;;;;;4.90;2.60;;;;;;;4.74;91.85;96593.75;108951;1269;25595;-81
2023/11/16 04:50:13;;;;;;;3.60;2.50;;;;;;;4.73;91.88;96594.16;108952;1272;34688;-81
2023/11/16 04:52:45;;;;;;;4.50;2.20;;;;;;;4.72;92.03;96596.45;109080;1249;22521;-81
2023/11/16 04:55:18;;;;;;;5.10;2.40;;;;;;;4.71;92.09;96601.70;108873;1272;22470;-81
2023/11/16 04:57:49;;;;;;;3.40;2.60;;;;;;;4.71;92.23;96606.00;108898;1272;24206;-81
2023/11/16 05:00:21;;;;;;;3.90;2.70;;;;;;;4.72;92.46;96610.27;108914;1272;22558;-81
2023/11/16 05:02:52;;;;;;;5.00;2.90;;;;;;;4.71;92.67;96608.95;108987;1269;22642;-82
2023/11/16 05:05:24;;;;;;;4.40;2.80;;;;;;;4.71;92.76;96614.56;108893;1272;22521;-81
2023/11/16 05:07:55;;;;;;;4.70;2.90;;;;;;;4.71;92.66;96613.40;108941;1272;22538;-82
2023/11/16 05:10:26;;;;;;;5.20;2.90;;;;;;;4.71;92.87;96616.67;108834;1272;22553;-81
2023/11/16 05:12:58;;;;;;;5.10;3.20;;;;;;;4.72;92.94;96614.79;108936;1272;25265;-81
2023/11/16 05:15:30;;;;;;;5.30;2.90;;;;;;;4.74;92.99;96620.38;108890;1272;22531;-81
2023/11/16 05:18:01;;;;;;;5.60;3.30;;;;;;;4.75;93.06;96621.45;108900;1272;24010;-82
2023/11/16 05:20:33;;;;;;;4.60;3.30;;;;;;;4.76;92.96;96619.88;108879;1266;23806;-81
2023/11/16 05:23:05;;;;;;;4.40;3.10;;;;;;;4.76;92.93;96617.98;108872;1272;22559;-81
2023/11/16 05:25:37;;;;;;;4.60;3.10;;;;;;;4.75;93.21;96620.55;108822;1272;26856;-81
2023/11/16 05:28:08;;;;;;;6.50;3.60;;;;;;;4.73;93.32;96625.89;109003;1272;25009;-81
2023/11/16 05:30:43;;;;;;;4.10;2.80;;;;;;;4.72;93.32;96619.99;109017;1266;23834;-82
2023/11/16 05:33:15;;;;;;;4.00;3.00;;;;;;;4.72;93.50;96623.08;108958;1272;22526;-81
2023/11/16 05:35:48;;;;;;;4.40;2.60;;;;;;;4.71;93.55;96624.06;108917;1266;22533;-81
2023/11/16 05:38:19;;;;;;;4.40;2.60;;;;;;;4.70;93.62;96624.27;108933;1266;25384;-80
2023/11/16 05:40:51;;;;;;;4.50;2.70;;;;;;;4.68;93.63;96624.60;108889;1272;22524;-81
2023/11/16 05:43:24;;;;;;;4.40;2.70;;;;;;;4.66;93.87;96628.10;108903;1269;24367;-81
2023/11/16 05:45:55;;;;;;;3.00;2.30;;;;;;;4.63;94.12;96629.34;108888;1272;22634;-82
2023/11/16 05:48:26;;;;;;;4.00;2.80;;;;;;;4.60;93.99;96631.83;108886;1272;22531;-81
2023/11/16 05:50:58;;;;;;;4.10;3.20;;;;;;;4.59;94.13;96636.96;108898;1272;22524;-81
2023/11/16 05:53:31;;;;;;;4.40;2.70;;;;;;;4.57;94.43;96638.19;108818;1267;22646;-81
2023/11/16 05:56:03;;;;;;;4.10;2.60;;;;;;;4.54;94.65;96637.36;108713;1266;22531;-81
2023/11/16 05:58:34;;;;;;;3.40;2.30;;;;;;;4.54;94.96;96639.09;108767;1272;23325;-81
2023/11/16 06:01:07;;;;;;;5.90;2.70;;;;;;;4.51;94.83;96646.08;108805;1272;22517;-81
2023/11/16 06:03:38;;;;;;;2.30;2.00;;;;;;;4.47;95.26;96648.11;108795;1266;25323;-81
2023/11/16 06:06:12;;;;;;;4.00;2.40;;;;;;;4.43;95.25;96649.10;108756;1272;22514;-81
2023/11/16 06:08:47;;;;;;;3.40;2.30;;;;;;;4.40;95.74;96648.58;108734;1270;22531;-80
2023/11/16 06:11:19;;;;;;;3.80;2.50;;;;;;;4.37;95.83;96651.31;108661;1272;25414;-81
2023/11/16 06:13:54;;;;;;;6.10;3.60;;;;;;;4.34;96.00;96650.77;108782;1272;22521;-81
2023/11/16 06:16:27;;;;;;;2.80;2.10;;;;;;;4.34;96.07;96654.76;108824;1266;22535;-81
2023/11/16 06:18:58;;;;;;;3.40;2.20;;;;;;;4.32;96.29;96653.90;108814;1270;22532;-80
2023/11/16 06:21:29;;;;;;;3.80;1.90;;;;;;;4.31;96.39;96655.73;108830;1272;22543;-80
2023/11/16 06:24:01;;;;;;;2.50;1.50;;;;;;;4.30;96.58;96652.17;108860;1264;22527;-80
2023/11/16 06:26:33;;;;;;;3.10;2.00;;;;;;;4.30;96.65;96651.66;108956;1272;22979;-80
2023/11/16 06:29:06;;;;;;;2.70;1.30;;;;;;;4.32;96.83;96654.16;108856;1268;25365;-80
2023/11/16 06:31:38;;;;;;;1.50;1.20;;;;;;;4.31;96.77;96652.36;108880;1272;22621;-80
2023/11/16 06:34:09;;;;;;;2.20;0.90;;;;;;;4.32;96.98;96650.42;108827;1272;25420;-80
2023/11/16 06:36:41;;;;;;;1.50;0.90;;;;;;;4.29;96.97;96649.75;108863;1272;22529;-80
2023/11/16 06:39:15;;;;;;;2.10;1.10;;;;;;;4.27;97.18;96652.19;108890;1249;25258;-80
2023/11/16 06:41:46;;;;;;;4.00;1.80;;;;;;;4.24;97.30;96652.15;108895;1272;22601;-80
2023/11/16 06:44:19;;;;;;;3.20;2.10;;;;;;;4.23;97.48;96660.10;109022;1266;22648;-80
2023/11/16 06:46:52;;;;;;;2.80;1.90;;;;;;;4.23;97.67;96662.25;109017;1272;22529;-80
2023/11/16 06:49:26;;;;;;;3.30;2.20;;;;;;;4.22;97.78;96668.63;109012;1266;22521;-80
2023/11/16 06:51:57;;;;;;;2.10;1.50;;;;;;;4.21;97.96;96667.72;109069;1272;22604;-80
2023/11/16 06:54:32;;;;;;;3.00;1.40;;;;;;;4.21;98.09;96667.40;109057;1266;22589;-81
2023/11/16 06:57:04;;;;;;;2.00;1.20;;;;;;;4.24;98.15;96664.37;109213;1266;22528;-80
2023/11/16 06:59:36;;;;;;;2.00;1.30;;;;;;;4.28;98.30;96661.33;109157;1266;24269;-80
2023/11/16 07:02:08;;;;;;;2.00;1.30;;;;;;;4.31;98.45;96655.03;109170;1267;25384;-80
2023/11/16 07:04:41;;;;;;;1.60;1.20;;;;;;;4.36;98.43;96648.89;109083;1272;24186;-80
2023/11/16 07:07:12;;;;;;;2.00;1.40;;;;;;;4.39;98.26;96649.09;109124;1269;25958;-80
2023/11/16 07:09:49;;;;;;;2.30;1.40;;;;;;;4.41;98.56;96649.64;109158;1272;23071;-80
2023/11/16 07:12:21;;;;;;;3.80;1.80;;;;;;;4.45;98.69;96647.82;109195;1267;26636;-81
2023/11/16 07:14:53;;;;;;;1.40;0.90;;;;;;;4.46;98.45;96649.52;109020;1272;23228;-80
2023/11/16 07:17:24;;;;;;;1.50;1.20;;;;;;;4.45;98.52;96646.70;109083;1272;22596;-80
2023/11/16 07:19:55;;;;;;;1.60;1.20;;;;;;;4.50;98.71;96649.46;109166;1269;28292;-80
2023/11/16 07:22:29;;;;;;;2.60;1.20;;;;;;;4.56;98.73;96650.30;109090;1269;22492;-80
2023/11/16 07:25:04;;;;;;;1.50;1.00;;;;;;;4.54;98.52;96650.17;108902;1272;24679;-81
2023/11/16 07:27:36;;;;;;;1.10;0.90;;;;;;;4.51;98.58;96648.91;108835;1272;22592;-80
2023/11/16 07:30:10;;;;;;;1.80;1.20;;;;;;;4.47;98.61;96652.58;108800;1269;26452;-81
2023/11/16 07:32:41;;;;;;;1.90;1.00;;;;;;;4.45;98.64;96661.48;108930;1272;22528;-81
2023/11/16 07:35:16;;;;;;;1.20;1.00;;;;;;;4.45;98.70;96663.58;108943;1272;25287;-81
2023/11/16 07:37:48;;;;;;;1.60;1.10;;;;;;;4.45;98.77;96657.48;109013;1265;22520;-81
2023/11/16 07:40:20;;;;;;;2.10;1.20;;;;;;;4.45;98.95;96654.69;109126;1266;24182;-81
2023/11/16 07:42:54;;;;;;;1.80;0.80;;;;;;;4.47;98.86;96655.14;109051;1269;22606;-80
2023/11/16 07:45:27;;;;;;;1.10;0.90;;;;;;;4.50;98.91;96653.14;109155;1272;22542;-81
2023/11/16 07:48:01;;;;;;;1.90;1.00;;;;;;;4.54;98.92;96652.27;109155;1268;23606;-81
2023/11/16 07:50:35;;;;;;;0.90;0.80;;;;;;;4.59;98.98;96645.84;108925;1272;23680;-81
2023/11/16 07:53:10;;;;;;;1.10;0.90;;;;;;;4.65;98.80;96646.55;108932;1272;25420;-81
2023/11/16 07:55:48;;;;;;;1.40;0.90;;;;;;;4.71;98.65;96644.02;108963;1256;22663;-81
2023/11/16 07:58:22;;;;;;;1.60;1.00;;;;;;;4.74;98.62;96634.20;108986;1272;25420;-80
2023/11/16 08:01:04;;;;;;;1.10;0.90;;;;;;;4.78;98.62;96637.10;108960;1272;22518;-81
2023/11/16 08:03:43;;;;;;;1.60;1.00;;;;;;;5.00;98.85;96638.92;108852;1272;24206;-81
2023/11/16 08:06:16;;;;;;;2.30;1.00;;;;;;;5.30;98.75;96647.31;108885;1272;25336;-80
2023/11/16 08:08:49;;;;;;;1.70;0.80;;;;;;;5.35;98.33;96657.85;108946;1272;22574;-80
2023/11/16 08:11:24;;;;;;;1.00;0.70;;;;;;;5.43;98.36;96655.99;108966;1272;24310;-81
2023/11/16 08:13:57;;;;;;;1.20;1.10;;;;;;;5.44;97.86;96656.80;109140;1265;22761;-81
2023/11/16 08:16:29;;;;;;;1.40;0.90;;;;;;;5.47;97.96;96652.89;109064;1272;22588;-81
2023/11/16 08:19:00;;;;;;;1.30;1.00;;;;;;;5.56;97.81;96656.84;109220;1266;22521;-81
2023/11/16 08:21:32;;;;;;;1.20;0.70;;;;;;;5.64;97.50;96652.38;109045;1272;22532;-80
2023/11/16 08:24:05;;;;;;;1.40;1.00;;;;;;;5.80;97.42;96648.72;108962;1272;22560;-80
2023/11/16 08:26:37;;;;;;;1.70;1.20;;;;;;;5.91;97.03;96644.02;109143;1269;22623;-80
2023/11/16 08:29:08;;;;;;;1.40;1.00;;;;;;;6.05;96.66;96641.84;108911;1272;22626;-80
2023/11/16 08:31:40;;;;;;;0.90;0.70;;;;;;;6.07;96.25;96638.30;109003;1272;23858;-80
2023/11/16 08:34:19;;;;;;;1.30;1.10;;;;;;;6.20;96.35;96641.10;109072;1272;22524;-80
2023/11/16 08:36:51;;;;;;;1.10;1.00;;;;;;;6.29;96.10;96642.13;109106;1269;22513;-81
2023/11/16 08:39:23;;;;;;;1.70;1.10;;;;;;;6.21;95.38;96644.17;109125;1266;23977;-80
2023/11/16 08:41:58;;;;;;;1.20;1.10;;;;;;;6.18;95.53;96643.28;109244;1272;22658;-81
2023/11/16 08:44:29;;;;;;;1.80;1.00;;;;;;;6.17;95.37;96639.01;109104;1266;22524;-81
2023/11/16 08:47:04;;;;;;;1.40;0.80;;;;;;;6.16;95.35;96641.37;109155;1272;22541;-81
2023/11/16 08:49:37;;;;;;;2.10;1.40;;;;;;;6.08;94.82;96638.98;109144;1272;22772;-81
2023/11/16 08:52:10;;;;;;;2.50;2.10;;;;;;;6.06;95.08;96637.02;109161;1272;22533;-81
2023/11/16 08:54:41;;;;;;;3.10;2.50;;;;;;;6.10;95.04;96634.75;109176;1272;22725;-81
2023/11/16 08:57:13;;;;;;;3.50;2.30;;;;;;;6.12;95.08;96636.44;109128;1269;26833;-81
2023/11/16 08:59:59;;;;;;;2.90;2.00;;;;;;;6.07;94.88;96636.81;109011;1272;22558;-81
2023/11/16 09:02:30;;;;;;;3.20;2.10;;;;;;;5.99;94.94;96635.69;109183;1269;22575;-81
2023/11/16 09:05:02;;;;;;;3.30;1.90;;;;;;;5.95;94.88;96634.59;109062;1266;22485;-81
2023/11/16 09:07:34;;;;;;;3.90;2.30;;;;;;;5.90;94.89;96639.70;109030;1272;22524;-81
2023/11/16 09:10:13;;;;;;;3.10;2.20;;;;;;;5.88;95.24;96644.06;109060;1266;22511;-81
2023/11/16 09:12:45;;;;;;;2.50;1.70;;;;;;;5.92;95.20;96643.52;109070;1272;22543;-81
2023/11/16 09:15:17;;;;;;;3.10;2.00;;;;;;;5.93;95.09;96638.64;109069;1272;25408;-81
2023/11/16 09:17:51;;;;;;;3.10;2.40;;;;;;;5.98;95.28;96642.77;109135;1272;25598;-81
2023/11/16 09:20:24;;;;;;;2.90;1.90;;;;;;;6.01;95.14;96642.43;108944;1272;29245;-81
2023/11/16 09:22:58;;;;;;;3.30;2.40;;;;;;;5.97;95.03;96638.98;108944;1269;150343;-81
2023/11/16 09:25:34;;;;;;;3.90;2.50;;;;;;;6.00;95.22;96638.38;109043;1265;22655;-81
2023/11/16 09:28:06;;;;;;;2.70;1.80;;;;;;;6.01;95.07;96640.85;109063;1272;22569;-81
2023/11/16 09:30:40;;;;;;;4.20;2.90;;;;;;;6.01;95.47;96643.22;108967;1272;22597;-81
2023/11/16 09:33:12;;;;;;;3.70;2.00;;;;;;;6.08;95.45;96632.92;109053;1272;26324;-82
2023/11/16 09:35:46;;;;;;;2.80;2.00;;;;;;;6.14;95.49;96630.45;108982;1272;22612;-81
2023/11/16 09:38:18;;;;;;;3.10;2.00;;;;;;;6.25;95.35;96624.09;109027;1266;22529;-81
2023/11/16 09:40:49;;;;;;;2.50;1.80;;;;;;;6.49;95.92;96622.55;109002;1266;22525;-82
2023/11/16 09:43:24;;;;;;;3.10;2.30;;;;;;;6.69;95.65;96615.00;108992;1272;22531;-81
2023/11/16 09:46:00;;;;;;;2.40;1.80;;;;;;;6.73;95.07;96615.98;108994;1269;24212;-82
2023/11/16 09:48:32;;;;;;;3.60;2.00;;;;;;;6.78;94.79;96616.35;109075;1272;26893;-81
2023/11/16 09:51:05;;;;;;;4.30;1.80;;;;;;;6.76;94.42;96615.86;109015;1272;23369;-81
2023/11/16 09:53:39;;;;;;;3.40;1.60;;;;;;;6.69;94.18;96615.64;108989;1269;22521;-82
2023/11/16 09:56:14;;;;;;;2.40;1.90;;;;;;;6.61;94.03;96608.37;109176;1270;22525;-81
2023/11/16 09:58:47;;;;;;;2.00;1.60;;;;;;;6.54;94.06;96606.27;109142;1272;22512;-81
2023/11/16 10:01:19;;;;;;;2.90;1.60;;;;;;;6.53;93.96;96604.94;109126;1272;22525;-81
2023/11/16 10:03:51;;;;;;;2.70;1.70;;;;;;;6.50;93.99;96605.19;109262;1250;25332;-81
2023/11/16 10:06:22;;;;;;;3.30;2.20;;;;;;;6.49;94.03;96605.60;109227;1272;22540;-81
2023/11/16 10:08:53;;;;;;;2.70;1.90;;;;;;;6.48;94.15;96601.33;108944;1269;26533;-81
2023/11/16 10:11:27;;;;;;;3.10;2.00;;;;;;;6.52;94.46;96598.77;108976;1272;22487;-81
2023/11/16 10:13:59;;;;;;;2.20;2.00;;;;;;;6.57;94.61;96597.80;108952;1272;22537;-81
2023/11/16 10:16:33;;;;;;;3.00;1.90;;;;;;;6.65;94.55;96597.39;108954;1272;25530;-81
2023/11/16 10:19:10;;;;;;;2.80;2.20;;;;;;;6.71;94.80;96595.32;108916;1266;27374;-82
2023/11/16 10:21:44;;;;;;;2.20;2.00;;;;;;;6.79;95.16;96591.21;109001;1256;22639;-81
2023/11/16 10:24:15;;;;;;;3.40;2.00;;;;;;;6.79;94.65;96590.48;108843;1272;23098;-81
2023/11/16 10:26:55;;;;;;;2.60;1.80;;;;;;;6.73;94.69;96583.63;108854;1272;22535;-81
2023/11/16 10:29:27;;;;;;;2.90;2.10;;;;;;;6.78;94.88;96581.52;108843;1272;23461;-81
2023/11/16 10:31:59;;;;;;;3.30;2.30;;;;;;;6.83;94.99;96579.75;108916;1272;24189;-81
2023/11/16 10:34:30;;;;;;;2.80;2.10;;;;;;;6.90;95.05;96579.05;108802;1269;22544;-81
2023/11/16 10:37:04;;;;;;;3.60;2.10;;;;;;;6.91;94.86;96575.12;108852;1272;22577;-81
2023/11/16 10:39:36;;;;;;;3.30;2.50;;;;;;;6.91;94.56;96573.33;108800;1272;25336;-81
2023/11/16 10:42:10;;;;;;;3.40;2.50;;;;;;;6.95;94.45;96572.33;108893;1266;25255;-81
2023/11/16 10:44:43;;;;;;;3.40;2.30;;;;;;;6.89;94.18;96573.86;108909;1269;22524;-81
2023/11/16 10:47:15;;;;;;;3.10;2.30;;;;;;;6.87;94.27;96574.59;108933;1269;22561;-81
2023/11/16 10:49:48;;;;;;;3.50;2.70;;;;;;;6.86;94.23;96572.64;108787;1272;22575;-81
2023/11/16 10:52:22;;;;;;;2.60;2.40;;;;;;;6.86;94.44;96570.68;108866;1269;25419;-81
2023/11/16 10:54:59;;;;;;;2.70;2.00;;;;;;;6.95;94.70;96565.90;108844;1272;22537;-81
2023/11/16 10:57:33;;;;;;;3.30;2.40;;;;;;;7.01;94.63;96561.34;108853;1272;22528;-81
2023/11/16 11:00:16;;;;;;;3.20;2.00;;;;;;;7.09;94.57;96558.33;108839;1272;25252;-81
2023/11/16 11:02:49;;;;;;;3.40;2.60;;;;;;;7.22;94.77;96554.69;108927;1271;22548;-81
2023/11/16 11:05:21;;;;;;;2.90;2.40;;;;;;;7.38;94.84;96550.69;108813;1272;22610;-81
2023/11/16 11:07:56;;;;;;;3.20;2.20;;;;;;;7.51;94.59;96545.98;108836;1272;22634;-81
2023/11/16 11:10:33;;;;;;;2.80;2.00;;;;;;;7.60;94.35;96541.84;108781;1272;22535;-81
2023/11/16 11:13:06;;;;;;;2.80;2.10;;;;;;;7.70;94.07;96542.27;108832;1272;25939;-81
2023/11/16 11:15:39;;;;;;;2.50;2.00;;;;;;;7.81;94.04;96535.13;108874;1269;24310;-81
2023/11/16 11:18:12;;;;;;;3.10;2.20;;;;;;;7.92;93.92;96527.11;108883;1269;22592;-81
2023/11/16 11:20:48;;;;;;;4.30;2.00;;;;;;;7.96;93.31;96514.92;108802;1271;25551;-81
2023/11/16 11:23:22;;;;;;;2.70;2.00;;;;;;;8.04;93.25;96513.92;108837;1272;22525;-81
2023/11/16 11:26:04;;;;;;;2.80;2.50;;;;;;;8.22;93.58;96510.91;108830;1269;22514;-81
2023/11/16 11:28:40;;;;;;;2.30;2.10;;;;;;;8.45;93.70;96507.64;108934;1272;22533;-81
2023/11/16 11:31:13;;;;;;;2.70;2.20;;;;;;;8.55;92.99;96505.61;108956;1269;22522;-82
2023/11/16 11:33:45;;;;;;;4.10;2.70;;;;;;;8.53;92.51;96507.63;109020;1272;22524;-82
2023/11/16 11:36:21;;;;;;;5.90;2.50;;;;;;;8.52;92.16;96512.23;108859;1269;22526;-82
2023/11/16 11:38:58;;;;;;;3.20;2.30;;;;;;;8.51;91.88;96506.89;108912;1272;24250;-81
2023/11/16 11:41:32;;;;;;;3.10;2.20;;;;;;;8.55;91.94;96509.30;108923;1267;22601;-82
2023/11/16 11:44:09;;;;;;;2.80;2.40;;;;;;;8.54;91.69;96506.41;108955;1272;22544;-82
2023/11/16 11:46:42;;;;;;;4.10;2.40;;;;;;;8.45;91.41;96504.31;108959;1269;22578;-82
2023/11/16 11:49:15;;;;;;;4.30;2.60;;;;;;;8.37;90.97;96504.23;108822;1265;24750;-82
2023/11/16 11:51:50;;;;;;;5.00;2.20;;;;;;;8.41;91.00;96503.79;108839;1272;26455;-82
2023/11/16 11:54:32;;;;;;;3.30;2.20;;;;;;;8.39;90.42;96506.54;108829;1272;25420;-82
2023/11/16 11:57:06;;;;;;;3.00;2.40;;;;;;;8.30;89.85;96505.84;108799;1270;22528;-82
2023/11/16 11:59:37;;;;;;;4.60;2.60;;;;;;;8.28;89.63;96507.04;108872;1269;22528;-81